sensor_id;sensor_type;location;lat;lon;timestamp;pressure;altitude;pressure_sealevel;temperature;humidity
10700;BME280;5401;41.986;21.452;2023-05-29T01:40:22;98030.28;;;17.23;72.86
10700;BME280;5401;41.986;21.452;2023-05-29T01:42:50;98017.81;;;17.17;72.52
10700;BME280;5401;41.986;21.452;2023-05-29T01:49:42;98033.16;;;17.12;73.42
10700;BME280;5401;41.986;21.452;2023-05-29T02:41:02;98046.94;;;16.74;76.21
10700;BME280;5401;41.986;21.452;2023-05-29T02:43:58;98051.53;;;16.74;75.77
10700;BME280;5401;41.986;21.452;2023-05-29T02:47:27;98039.09;;;16.73;76.39
10700;BME280;5401;41.986;21.452;2023-05-29T03:52:15;98083.94;;;22.35;63.00
10700;BME280;5401;41.986;21.452;2023-05-29T04:02:32;98097.13;;;24.49;58.55
10700;BME280;5401;41.986;21.452;2023-05-29T04:05:46;98097.88;;;25.11;57.24
10700;BME280;5401;41.986;21.452;2023-05-29T07:02:53;98140.78;;;31.73;41.26
10700;BME280;5401;41.986;21.452;2023-05-29T07:05:21;98158.97;;;31.98;40.85
10700;BME280;5401;41.986;21.452;2023-05-29T07:07:48;98150.72;;;32.01;40.61
10700;BME280;5401;41.986;21.452;2023-05-29T07:10:16;98151.28;;;32.22;40.54
10700;BME280;5401;41.986;21.452;2023-05-29T07:12:44;98156.00;;;32.48;39.53
10700;BME280;5401;41.986;21.452;2023-05-29T07:15:12;98154.63;;;32.73;39.21
10700;BME280;5401;41.986;21.452;2023-05-29T07:17:40;98150.44;;;32.79;39.34
10700;BME280;5401;41.986;21.452;2023-05-29T07:20:10;98147.28;;;32.96;39.19
10700;BME280;5401;41.986;21.452;2023-05-29T07:22:38;98145.06;;;32.86;38.72
10700;BME280;5401;41.986;21.452;2023-05-29T07:25:06;98153.38;;;32.86;39.02
10700;BME280;5401;41.986;21.452;2023-05-29T07:27:34;98145.97;;;32.90;38.60
10700;BME280;5401;41.986;21.452;2023-05-29T07:30:02;98151.16;;;32.61;38.81
10700;BME280;5401;41.986;21.452;2023-05-29T07:32:30;98138.19;;;32.65;38.60
10700;BME280;5401;41.986;21.452;2023-05-29T07:34:58;98139.09;;;32.38;39.18
10700;BME280;5401;41.986;21.452;2023-05-29T07:37:27;98128.84;;;32.11;38.97
10700;BME280;5401;41.986;21.452;2023-05-29T07:39:56;98136.97;;;32.20;39.19
10700;BME280;5401;41.986;21.452;2023-05-29T07:42:23;98143.47;;;31.97;39.05
10700;BME280;5401;41.986;21.452;2023-05-29T07:44:51;98151.34;;;31.95;39.26
10700;BME280;5401;41.986;21.452;2023-05-29T07:47:18;98146.88;;;32.05;38.65
10700;BME280;5401;41.986;21.452;2023-05-29T07:49:46;98143.78;;;32.22;38.42
10700;BME280;5401;41.986;21.452;2023-05-29T07:52:13;98143.50;;;32.27;38.81
10700;BME280;5401;41.986;21.452;2023-05-29T07:54:42;98138.66;;;32.36;38.03
10700;BME280;5401;41.986;21.452;2023-05-29T07:57:10;98135.41;;;32.49;38.20
10700;BME280;5401;41.986;21.452;2023-05-29T07:59:40;98138.72;;;32.55;38.34
10700;BME280;5401;41.986;21.452;2023-05-29T08:02:08;98137.50;;;32.52;38.22
10700;BME280;5401;41.986;21.452;2023-05-29T08:04:37;98134.31;;;32.23;38.29
10700;BME280;5401;41.986;21.452;2023-05-29T08:07:05;98119.56;;;32.04;38.45
10700;BME280;5401;41.986;21.452;2023-05-29T08:09:32;98135.31;;;32.46;37.90
10700;BME280;5401;41.986;21.452;2023-05-29T08:12:02;98130.81;;;33.03;37.80
10700;BME280;5401;41.986;21.452;2023-05-29T08:14:29;98120.56;;;33.41;37.06
10700;BME280;5401;41.986;21.452;2023-05-29T08:16:57;98126.72;;;33.68;37.08
10700;BME280;5401;41.986;21.452;2023-05-29T08:19:25;98133.28;;;33.79;36.62
10700;BME280;5401;41.986;21.452;2023-05-29T08:21:52;98118.41;;;33.68;36.61
10700;BME280;5401;41.986;21.452;2023-05-29T08:24:20;98106.00;;;33.28;36.63
10700;BME280;5401;41.986;21.452;2023-05-29T08:26:47;98116.97;;;32.72;37.44
10700;BME280;5401;41.986;21.452;2023-05-29T08:29:16;98115.75;;;32.39;37.34
10700;BME280;5401;41.986;21.452;2023-05-29T08:31:44;98118.38;;;32.05;37.70
10700;BME280;5401;41.986;21.452;2023-05-29T08:34:12;98121.47;;;31.88;37.86
10700;BME280;5401;41.986;21.452;2023-05-29T08:36:39;98125.09;;;31.50;38.15
10700;BME280;5401;41.986;21.452;2023-05-29T08:39:07;98111.56;;;31.21;38.11
10700;BME280;5401;41.986;21.452;2023-05-29T08:41:40;98105.88;;;31.41;38.48
10700;BME280;5401;41.986;21.452;2023-05-29T08:44:12;98108.38;;;31.46;37.68
10700;BME280;5401;41.986;21.452;2023-05-29T08:46:43;98107.69;;;31.49;38.09
10700;BME280;5401;41.986;21.452;2023-05-29T08:49:15;98107.47;;;31.69;37.68
10700;BME280;5401;41.986;21.452;2023-05-29T08:51:47;98107.09;;;31.83;37.26
10700;BME280;5401;41.986;21.452;2023-05-29T08:54:17;98115.06;;;31.72;37.39
10700;BME280;5401;41.986;21.452;2023-05-29T08:56:44;98106.19;;;31.67;37.68
10700;BME280;5401;41.986;21.452;2023-05-29T08:59:13;98096.47;;;31.73;37.44
10700;BME280;5401;41.986;21.452;2023-05-29T09:01:42;98102.56;;;32.05;37.25
10700;BME280;5401;41.986;21.452;2023-05-29T09:04:10;98107.94;;;32.29;37.17
10700;BME280;5401;41.986;21.452;2023-05-29T09:06:38;98095.94;;;32.25;36.74
10700;BME280;5401;41.986;21.452;2023-05-29T09:09:07;98095.06;;;32.21;36.90
10700;BME280;5401;41.986;21.452;2023-05-29T09:11:35;98092.84;;;32.42;36.24
10700;BME280;5401;41.986;21.452;2023-05-29T09:14:03;98084.66;;;32.64;36.43
10700;BME280;5401;41.986;21.452;2023-05-29T09:16:31;98080.91;;;32.87;36.26
10700;BME280;5401;41.986;21.452;2023-05-29T09:19:06;98058.28;;;33.04;35.77
10700;BME280;5401;41.986;21.452;2023-05-29T09:21:37;98077.41;;;33.43;35.66
10700;BME280;5401;41.986;21.452;2023-05-29T09:24:05;98073.75;;;33.58;35.34
10700;BME280;5401;41.986;21.452;2023-05-29T09:26:33;98074.84;;;33.53;35.16
10700;BME280;5401;41.986;21.452;2023-05-29T09:29:01;98073.31;;;33.37;35.32
10700;BME280;5401;41.986;21.452;2023-05-29T09:31:31;98062.81;;;33.12;35.57
10700;BME280;5401;41.986;21.452;2023-05-29T09:34:01;98059.59;;;32.91;35.45
10700;BME280;5401;41.986;21.452;2023-05-29T09:36:31;98074.34;;;32.95;35.61
10700;BME280;5401;41.986;21.452;2023-05-29T09:39:02;98063.38;;;32.83;35.94
10700;BME280;5401;41.986;21.452;2023-05-29T09:41:30;98045.50;;;32.66;35.52
10700;BME280;5401;41.986;21.452;2023-05-29T09:43:59;98054.69;;;32.70;35.76
10700;BME280;5401;41.986;21.452;2023-05-29T09:46:33;98042.06;;;32.72;36.00
10700;BME280;5401;41.986;21.452;2023-05-29T09:49:01;98061.94;;;32.74;35.54
10700;BME280;5401;41.986;21.452;2023-05-29T09:51:31;98061.31;;;32.80;35.70
10700;BME280;5401;41.986;21.452;2023-05-29T09:53:58;98059.81;;;32.68;36.08
10700;BME280;5401;41.986;21.452;2023-05-29T09:56:28;98053.59;;;32.74;35.71
10700;BME280;5401;41.986;21.452;2023-05-29T09:59:03;98048.13;;;32.59;35.63
10700;BME280;5401;41.986;21.452;2023-05-29T10:01:31;98042.59;;;32.28;35.97
10700;BME280;5401;41.986;21.452;2023-05-29T10:03:59;98052.88;;;32.43;36.19
10700;BME280;5401;41.986;21.452;2023-05-29T10:06:29;98039.91;;;32.47;35.68
10700;BME280;5401;41.986;21.452;2023-05-29T10:08:58;98044.94;;;31.68;36.50
10700;BME280;5401;41.986;21.452;2023-05-29T10:11:27;98027.72;;;30.93;36.67
10700;BME280;5401;41.986;21.452;2023-05-29T10:13:57;98027.53;;;30.87;36.85
10700;BME280;5401;41.986;21.452;2023-05-29T10:16:27;98022.78;;;30.75;37.27
10700;BME280;5401;41.986;21.452;2023-05-29T10:18:56;98019.13;;;30.71;36.99
10700;BME280;5401;41.986;21.452;2023-05-29T10:21:27;98016.81;;;30.85;37.17
10700;BME280;5401;41.986;21.452;2023-05-29T10:23:57;98027.00;;;30.96;37.03
10700;BME280;5401;41.986;21.452;2023-05-29T10:26:26;98025.78;;;31.21;36.54
10700;BME280;5401;41.986;21.452;2023-05-29T10:29:00;98020.94;;;31.30;37.02
10700;BME280;5401;41.986;21.452;2023-05-29T10:31:46;98010.66;;;31.30;37.20
10700;BME280;5401;41.986;21.452;2023-05-29T10:34:23;98004.19;;;31.54;36.59
10700;BME280;5401;41.986;21.452;2023-05-29T10:37:04;98017.31;;;31.84;36.15
10700;BME280;5401;41.986;21.452;2023-05-29T10:39:35;98011.63;;;31.80;36.43
10700;BME280;5401;41.986;21.452;2023-05-29T10:42:42;98009.97;;;31.49;36.25
10700;BME280;5401;41.986;21.452;2023-05-29T10:45:10;98001.16;;;31.43;36.87
10700;BME280;5401;41.986;21.452;2023-05-29T10:47:39;98001.16;;;31.59;36.58
10700;BME280;5401;41.986;21.452;2023-05-29T10:50:07;98004.31;;;31.72;36.09
10700;BME280;5401;41.986;21.452;2023-05-29T10:52:45;97995.56;;;31.55;36.61
10700;BME280;5401;41.986;21.452;2023-05-29T10:55:16;97977.38;;;31.42;36.83
10700;BME280;5401;41.986;21.452;2023-05-29T10:57:47;97992.22;;;31.65;35.92
10700;BME280;5401;41.986;21.452;2023-05-29T11:00:16;97992.22;;;31.50;36.47
10700;BME280;5401;41.986;21.452;2023-05-29T11:02:46;97987.78;;;31.06;36.39
10700;BME280;5401;41.986;21.452;2023-05-29T11:05:21;97962.56;;;30.69;36.73
10700;BME280;5401;41.986;21.452;2023-05-29T11:07:56;97958.75;;;30.34;36.77
10700;BME280;5401;41.986;21.452;2023-05-29T11:10:56;97962.88;;;30.40;36.59
10700;BME280;5401;41.986;21.452;2023-05-29T11:13:26;97960.41;;;30.62;36.68
10700;BME280;5401;41.986;21.452;2023-05-29T11:16:11;97968.66;;;30.74;36.59
10700;BME280;5401;41.986;21.452;2023-05-29T11:18:42;97970.00;;;30.41;36.68
10700;BME280;5401;41.986;21.452;2023-05-29T11:21:41;97959.00;;;30.06;36.89
10700;BME280;5401;41.986;21.452;2023-05-29T11:24:20;97947.56;;;30.19;36.73
10700;BME280;5401;41.986;21.452;2023-05-29T11:26:51;97954.91;;;30.51;37.10
10700;BME280;5401;41.986;21.452;2023-05-29T11:29:21;97928.16;;;30.66;36.48
10700;BME280;5401;41.986;21.452;2023-05-29T11:31:57;97942.91;;;30.97;35.96
10700;BME280;5401;41.986;21.452;2023-05-29T11:34:27;97947.66;;;31.12;35.90
10700;BME280;5401;41.986;21.452;2023-05-29T11:36:56;97939.53;;;31.31;35.86
10700;BME280;5401;41.986;21.452;2023-05-29T11:39:25;97945.28;;;31.53;35.56
10700;BME280;5401;41.986;21.452;2023-05-29T11:41:55;97924.72;;;31.54;35.37
10700;BME280;5401;41.986;21.452;2023-05-29T11:44:24;97907.31;;;31.54;35.51
10700;BME280;5401;41.986;21.452;2023-05-29T11:46:59;97931.78;;;31.52;34.89
10700;BME280;5401;41.986;21.452;2023-05-29T11:49:28;97923.44;;;31.36;35.59
10700;BME280;5401;41.986;21.452;2023-05-29T11:52:06;97910.28;;;31.18;35.65
10700;BME280;5401;41.986;21.452;2023-05-29T11:54:33;97920.06;;;31.00;35.50
10700;BME280;5401;41.986;21.452;2023-05-29T11:57:03;97929.41;;;30.69;35.78
10700;BME280;5401;41.986;21.452;2023-05-29T11:59:33;97922.91;;;30.38;36.69
10700;BME280;5401;41.986;21.452;2023-05-29T12:02:02;97923.28;;;30.13;36.81
10700;BME280;5401;41.986;21.452;2023-05-29T12:04:29;97920.88;;;29.64;36.99
10700;BME280;5401;41.986;21.452;2023-05-29T12:06:57;97916.16;;;29.52;37.04
10700;BME280;5401;41.986;21.452;2023-05-29T12:09:26;97917.50;;;29.35;37.44
10700;BME280;5401;41.986;21.452;2023-05-29T12:12:07;97914.28;;;29.21;37.34
10700;BME280;5401;41.986;21.452;2023-05-29T12:14:34;97901.53;;;29.28;37.42
10700;BME280;5401;41.986;21.452;2023-05-29T12:17:02;97909.38;;;29.62;36.79
10700;BME280;5401;41.986;21.452;2023-05-29T12:19:30;97903.50;;;30.11;36.78
10700;BME280;5401;41.986;21.452;2023-05-29T12:21:58;97904.22;;;30.58;35.89
10700;BME280;5401;41.986;21.452;2023-05-29T12:24:25;97891.59;;;31.00;35.75
10700;BME280;5401;41.986;21.452;2023-05-29T12:26:54;97902.56;;;31.54;35.16
10700;BME280;5401;41.986;21.452;2023-05-29T12:29:31;97894.00;;;31.90;34.54
10700;BME280;5401;41.986;21.452;2023-05-29T12:32:00;97898.06;;;32.11;34.89
10700;BME280;5401;41.986;21.452;2023-05-29T12:34:33;97873.69;;;32.01;34.63
10700;BME280;5401;41.986;21.452;2023-05-29T12:37:06;97898.25;;;32.18;34.28
10700;BME280;5401;41.986;21.452;2023-05-29T12:39:35;97896.94;;;32.31;34.65
10700;BME280;5401;41.986;21.452;2023-05-29T12:42:03;97889.22;;;32.39;33.66
10700;BME280;5401;41.986;21.452;2023-05-29T12:44:33;97879.69;;;32.22;33.79
10700;BME280;5401;41.986;21.452;2023-05-29T12:47:01;97870.09;;;32.16;33.67
10700;BME280;5401;41.986;21.452;2023-05-29T12:49:29;97877.88;;;32.44;34.18
10700;BME280;5401;41.986;21.452;2023-05-29T12:52:05;97864.38;;;32.43;33.43
10700;BME280;5401;41.986;21.452;2023-05-29T12:54:32;97866.25;;;32.05;33.87
10700;BME280;5401;41.986;21.452;2023-05-29T12:57:00;97862.56;;;31.36;34.50
10700;BME280;5401;41.986;21.452;2023-05-29T12:59:28;97841.47;;;31.01;34.08
10700;BME280;5401;41.986;21.452;2023-05-29T13:01:57;97863.47;;;30.83;35.13
10700;BME280;5401;41.986;21.452;2023-05-29T13:04:25;97844.09;;;30.55;34.83
10700;BME280;5401;41.986;21.452;2023-05-29T13:06:54;97863.34;;;30.52;34.95
10700;BME280;5401;41.986;21.452;2023-05-29T13:09:22;97855.31;;;30.47;35.25
10700;BME280;5401;41.986;21.452;2023-05-29T13:11:49;97869.19;;;30.62;35.15
10700;BME280;5401;41.986;21.452;2023-05-29T13:14:19;97867.88;;;30.72;35.08
10700;BME280;5401;41.986;21.452;2023-05-29T13:16:46;97839.38;;;30.56;34.83
10700;BME280;5401;41.986;21.452;2023-05-29T13:19:16;97872.31;;;30.76;34.96
10700;BME280;5401;41.986;21.452;2023-05-29T13:21:44;97870.19;;;30.70;34.87
10700;BME280;5401;41.986;21.452;2023-05-29T13:24:14;97873.31;;;30.68;34.91
10700;BME280;5401;41.986;21.452;2023-05-29T13:26:42;97860.72;;;30.44;35.12
10700;BME280;5401;41.986;21.452;2023-05-29T13:29:09;97877.91;;;30.37;35.56
10700;BME280;5401;41.986;21.452;2023-05-29T13:31:37;97872.31;;;30.22;35.38
10700;BME280;5401;41.986;21.452;2023-05-29T13:34:05;97864.63;;;30.04;36.01
10700;BME280;5401;41.986;21.452;2023-05-29T13:36:34;97864.66;;;29.92;36.23
10700;BME280;5401;41.986;21.452;2023-05-29T13:39:02;97860.66;;;29.78;36.03
10700;BME280;5401;41.986;21.452;2023-05-29T13:41:30;97852.69;;;29.52;36.45
10700;BME280;5401;41.986;21.452;2023-05-29T13:43:58;97867.28;;;29.53;36.69
10700;BME280;5401;41.986;21.452;2023-05-29T13:46:26;97852.47;;;29.57;36.91
10700;BME280;5401;41.986;21.452;2023-05-29T13:48:54;97843.41;;;29.45;36.81
10700;BME280;5401;41.986;21.452;2023-05-29T13:51:22;97853.47;;;29.53;36.87
10700;BME280;5401;41.986;21.452;2023-05-29T13:53:51;97856.34;;;29.44;37.11
10700;BME280;5401;41.986;21.452;2023-05-29T13:56:18;97854.16;;;29.14;37.26
10700;BME280;5401;41.986;21.452;2023-05-29T13:58:46;97854.53;;;28.81;37.56
10700;BME280;5401;41.986;21.452;2023-05-29T14:01:15;97857.91;;;28.66;37.89
10700;BME280;5401;41.986;21.452;2023-05-29T14:03:45;97872.78;;;28.53;38.22
10700;BME280;5401;41.986;21.452;2023-05-29T14:06:13;97871.78;;;28.37;38.34
10700;BME280;5401;41.986;21.452;2023-05-29T14:08:41;97863.19;;;28.19;38.58
10700;BME280;5401;41.986;21.452;2023-05-29T14:11:11;97875.53;;;28.33;38.36
10700;BME280;5401;41.986;21.452;2023-05-29T14:13:39;97885.44;;;28.34;38.62
10700;BME280;5401;41.986;21.452;2023-05-29T14:16:06;97886.41;;;28.09;38.75
10700;BME280;5401;41.986;21.452;2023-05-29T14:18:34;97878.31;;;27.84;38.86
10700;BME280;5401;41.986;21.452;2023-05-29T14:21:01;97887.38;;;27.56;39.26
10700;BME280;5401;41.986;21.452;2023-05-29T14:23:29;97874.00;;;27.09;39.91
10700;BME280;5401;41.986;21.452;2023-05-29T14:25:56;97860.50;;;26.71;40.36
10700;BME280;5401;41.986;21.452;2023-05-29T14:28:25;97865.06;;;26.42;40.89
10700;BME280;5401;41.986;21.452;2023-05-29T14:30:53;97879.13;;;26.23;40.88
10700;BME280;5401;41.986;21.452;2023-05-29T14:33:21;97861.50;;;26.08;41.07
10700;BME280;5401;41.986;21.452;2023-05-29T14:35:48;97867.47;;;26.18;41.25
10700;BME280;5401;41.986;21.452;2023-05-29T14:38:16;97864.94;;;26.30;40.93
10700;BME280;5401;41.986;21.452;2023-05-29T14:40:44;97837.81;;;26.20;40.97
10700;BME280;5401;41.986;21.452;2023-05-29T14:43:12;97876.34;;;26.57;40.43
10700;BME280;5401;41.986;21.452;2023-05-29T14:45:41;97879.72;;;26.71;40.71
10700;BME280;5401;41.986;21.452;2023-05-29T14:48:08;97868.72;;;26.88;40.34
10700;BME280;5401;41.986;21.452;2023-05-29T14:50:37;97853.63;;;27.02;39.92
10700;BME280;5401;41.986;21.452;2023-05-29T14:53:04;97879.09;;;27.27;39.60
10700;BME280;5401;41.986;21.452;2023-05-29T14:55:32;97877.44;;;27.35;39.89
10700;BME280;5401;41.986;21.452;2023-05-29T14:58:03;97875.16;;;27.37;39.38
10700;BME280;5401;41.986;21.452;2023-05-29T15:00:31;97877.06;;;27.53;38.99
10700;BME280;5401;41.986;21.452;2023-05-29T15:03:01;97873.25;;;27.66;38.86
10700;BME280;5401;41.986;21.452;2023-05-29T15:05:28;97871.88;;;27.80;38.87
10700;BME280;5401;41.986;21.452;2023-05-29T15:07:56;97855.63;;;27.87;38.64
10700;BME280;5401;41.986;21.452;2023-05-29T15:10:26;97873.94;;;27.83;39.08
10700;BME280;5401;41.986;21.452;2023-05-29T15:12:53;97864.06;;;27.62;39.08
10700;BME280;5401;41.986;21.452;2023-05-29T15:15:23;97865.53;;;27.60;38.97
10700;BME280;5401;41.986;21.452;2023-05-29T15:17:58;97881.34;;;27.91;39.34
10700;BME280;5401;41.986;21.452;2023-05-29T15:20:40;97852.53;;;27.89;38.99
10700;BME280;5401;41.986;21.452;2023-05-29T15:23:07;97882.25;;;28.24;38.80
10700;BME280;5401;41.986;21.452;2023-05-29T15:25:35;97877.97;;;28.35;39.04
10700;BME280;5401;41.986;21.452;2023-05-29T15:28:03;97871.53;;;28.31;38.86
10700;BME280;5401;41.986;21.452;2023-05-29T15:30:32;97866.63;;;28.36;38.75
10700;BME280;5401;41.986;21.452;2023-05-29T15:32:59;97869.34;;;28.56;38.78
10700;BME280;5401;41.986;21.452;2023-05-29T15:35:33;97851.88;;;28.73;38.40
10700;BME280;5401;41.986;21.452;2023-05-29T15:38:03;97867.44;;;29.01;38.26
10700;BME280;5401;41.986;21.452;2023-05-29T15:40:30;97874.75;;;29.17;38.03
10700;BME280;5401;41.986;21.452;2023-05-29T15:43:04;97864.06;;;29.15;38.04
10700;BME280;5401;41.986;21.452;2023-05-29T15:45:35;97851.91;;;28.96;37.94
10700;BME280;5401;41.986;21.452;2023-05-29T15:48:03;97874.31;;;28.95;38.28
10700;BME280;5401;41.986;21.452;2023-05-29T15:50:31;97848.38;;;28.64;38.27
10700;BME280;5401;41.986;21.452;2023-05-29T15:52:59;97870.56;;;28.67;38.45
10700;BME280;5401;41.986;21.452;2023-05-29T15:55:28;97873.25;;;28.55;38.79
10700;BME280;5401;41.986;21.452;2023-05-29T15:57:56;97860.66;;;28.34;38.74
10700;BME280;5401;41.986;21.452;2023-05-29T16:00:24;97871.53;;;28.31;39.13
10700;BME280;5401;41.986;21.452;2023-05-29T16:02:52;97890.47;;;28.32;39.22
10700;BME280;5401;41.986;21.452;2023-05-29T16:05:20;97896.50;;;28.26;39.10
10700;BME280;5401;41.986;21.452;2023-05-29T16:07:48;97907.41;;;28.22;39.60
10700;BME280;5401;41.986;21.452;2023-05-29T16:10:19;97889.56;;;27.99;39.39
10700;BME280;5401;41.986;21.452;2023-05-29T16:12:48;97908.66;;;28.04;39.67
10700;BME280;5401;41.986;21.452;2023-05-29T16:15:16;97876.44;;;27.76;39.87
10700;BME280;5401;41.986;21.452;2023-05-29T16:17:45;97900.50;;;27.79;39.61
10700;BME280;5401;41.986;21.452;2023-05-29T16:20:13;97902.47;;;27.79;40.27
10700;BME280;5401;41.986;21.452;2023-05-29T16:22:40;97904.81;;;27.68;40.05
10700;BME280;5401;41.986;21.452;2023-05-29T16:25:10;97898.06;;;27.58;40.09
10700;BME280;5401;41.986;21.452;2023-05-29T16:27:38;97910.66;;;27.59;40.24
10700;BME280;5401;41.986;21.452;2023-05-29T16:30:09;97911.81;;;27.58;40.33
10700;BME280;5401;41.986;21.452;2023-05-29T16:32:36;97886.34;;;27.32;40.54
10700;BME280;5401;41.986;21.452;2023-05-29T16:35:05;97913.00;;;27.48;40.79
10700;BME280;5401;41.986;21.452;2023-05-29T16:37:33;97899.78;;;27.33;40.82
10700;BME280;5401;41.986;21.452;2023-05-29T16:40:01;97885.75;;;27.18;41.21
10700;BME280;5401;41.986;21.452;2023-05-29T16:42:29;97916.75;;;27.35;41.03
10700;BME280;5401;41.986;21.452;2023-05-29T16:44:57;97915.13;;;27.34;41.10
10700;BME280;5401;41.986;21.452;2023-05-29T16:47:26;97915.59;;;27.36;41.21
10700;BME280;5401;41.986;21.452;2023-05-29T16:49:54;97919.63;;;27.39;41.60
10700;BME280;5401;41.986;21.452;2023-05-29T16:52:23;97909.78;;;27.38;41.59
10700;BME280;5401;41.986;21.452;2023-05-29T16:54:51;97914.94;;;27.39;41.86
10700;BME280;5401;41.986;21.452;2023-05-29T16:57:20;97918.81;;;27.38;41.91
10700;BME280;5401;41.986;21.452;2023-05-29T16:59:48;97920.81;;;27.29;42.17
10700;BME280;5401;41.986;21.452;2023-05-29T17:02:16;97921.63;;;27.30;42.37
10700;BME280;5401;41.986;21.452;2023-05-29T17:04:46;97890.31;;;27.06;42.25
10700;BME280;5401;41.986;21.452;2023-05-29T17:07:14;97913.72;;;27.20;42.52
10700;BME280;5401;41.986;21.452;2023-05-29T17:09:42;97880.16;;;26.98;43.00
10700;BME280;5401;41.986;21.452;2023-05-29T17:12:10;97926.69;;;27.11;42.65
10700;BME280;5401;41.986;21.452;2023-05-29T17:14:38;97924.13;;;26.98;43.16
10700;BME280;5401;41.986;21.452;2023-05-29T17:17:07;97928.66;;;26.94;43.01
10700;BME280;5401;41.986;21.452;2023-05-29T17:19:34;97928.84;;;26.89;43.20
10700;BME280;5401;41.986;21.452;2023-05-29T17:22:04;97939.03;;;26.80;43.54
10700;BME280;5401;41.986;21.452;2023-05-29T17:24:31;97931.28;;;26.65;43.88
10700;BME280;5401;41.986;21.452;2023-05-29T17:26:59;97938.53;;;26.61;44.42
10700;BME280;5401;41.986;21.452;2023-05-29T17:29:28;97930.81;;;26.38;44.62
10700;BME280;5401;41.986;21.452;2023-05-29T17:31:56;97944.38;;;26.26;44.53
10700;BME280;5401;41.986;21.452;2023-05-29T17:34:24;97930.25;;;25.94;45.18
10700;BME280;5401;41.986;21.452;2023-05-29T17:36:52;97945.41;;;25.83;45.06
10700;BME280;5401;41.986;21.452;2023-05-29T17:39:21;97933.63;;;25.44;45.76
10700;BME280;5401;41.986;21.452;2023-05-29T17:41:48;97966.88;;;25.51;45.79
10700;BME280;5401;41.986;21.452;2023-05-29T17:44:16;97939.44;;;25.13;46.24
10700;BME280;5401;41.986;21.452;2023-05-29T17:46:46;97948.69;;;24.95;46.51
10700;BME280;5401;41.986;21.452;2023-05-29T17:49:16;97974.56;;;24.89;46.83
10700;BME280;5401;41.986;21.452;2023-05-29T17:51:44;97974.78;;;24.58;47.61
10700;BME280;5401;41.986;21.452;2023-05-29T17:54:12;97978.09;;;24.46;48.06
10700;BME280;5401;41.986;21.452;2023-05-29T17:56:41;97974.78;;;24.23;48.24
10700;BME280;5401;41.986;21.452;2023-05-29T17:59:09;97968.88;;;23.94;48.71
10700;BME280;5401;41.986;21.452;2023-05-29T18:01:36;97970.00;;;23.80;49.12
10700;BME280;5401;41.986;21.452;2023-05-29T18:04:04;97985.28;;;23.81;49.24
10700;BME280;5401;41.986;21.452;2023-05-29T18:06:32;97961.09;;;23.61;49.31
10700;BME280;5401;41.986;21.452;2023-05-29T18:08:59;97988.34;;;23.66;49.46
10700;BME280;5401;41.986;21.452;2023-05-29T18:11:27;97964.72;;;23.43;49.80
10700;BME280;5401;41.986;21.452;2023-05-29T18:13:57;97986.69;;;23.52;49.93
10700;BME280;5401;41.986;21.452;2023-05-29T18:16:24;98009.19;;;23.62;49.73
10700;BME280;5401;41.986;21.452;2023-05-29T18:18:53;98002.72;;;23.58;49.79
10700;BME280;5401;41.986;21.452;2023-05-29T18:21:21;98018.59;;;23.56;49.99
10700;BME280;5401;41.986;21.452;2023-05-29T18:23:49;98017.47;;;23.57;50.14
10700;BME280;5401;41.986;21.452;2023-05-29T18:26:16;98030.41;;;23.52;49.84
10700;BME280;5401;41.986;21.452;2023-05-29T18:28:45;98036.25;;;23.32;50.49
10700;BME280;5401;41.986;21.452;2023-05-29T18:31:14;98039.66;;;23.24;50.71
10700;BME280;5401;41.986;21.452;2023-05-29T18:33:44;98024.34;;;23.10;50.81
10700;BME280;5401;41.986;21.452;2023-05-29T18:36:12;98049.16;;;23.13;50.55
10700;BME280;5401;41.986;21.452;2023-05-29T18:38:39;98062.59;;;23.10;51.06
10700;BME280;5401;41.986;21.452;2023-05-29T18:41:09;98071.97;;;23.04;50.52
10700;BME280;5401;41.986;21.452;2023-05-29T18:43:37;98062.63;;;22.92;50.89
10700;BME280;5401;41.986;21.452;2023-05-29T18:46:05;98069.50;;;22.89;51.02
10700;BME280;5401;41.986;21.452;2023-05-29T18:48:34;98056.78;;;22.80;51.33
10700;BME280;5401;41.986;21.452;2023-05-29T18:51:04;98099.53;;;22.89;50.97
10700;BME280;5401;41.986;21.452;2023-05-29T18:53:32;98086.81;;;22.61;51.45
10700;BME280;5401;41.986;21.452;2023-05-29T18:56:01;98107.03;;;22.60;51.91
10700;BME280;5401;41.986;21.452;2023-05-29T18:58:29;98099.88;;;22.46;52.25
10700;BME280;5401;41.986;21.452;2023-05-29T19:00:57;98123.56;;;22.51;52.34
10700;BME280;5401;41.986;21.452;2023-05-29T19:03:26;98122.34;;;22.38;53.14
10700;BME280;5401;41.986;21.452;2023-05-29T19:05:55;98088.34;;;22.08;53.59
10700;BME280;5401;41.986;21.452;2023-05-29T19:08:23;98135.53;;;22.31;52.87
10700;BME280;5401;41.986;21.452;2023-05-29T19:10:51;98123.66;;;22.22;53.54
10700;BME280;5401;41.986;21.452;2023-05-29T19:13:18;98121.47;;;22.19;53.23
10700;BME280;5401;41.986;21.452;2023-05-29T19:15:46;98127.19;;;22.23;54.01
10700;BME280;5401;41.986;21.452;2023-05-29T19:18:14;98131.81;;;22.22;53.65
10700;BME280;5401;41.986;21.452;2023-05-29T19:20:41;98122.38;;;22.15;53.81
10700;BME280;5401;41.986;21.452;2023-05-29T19:23:10;98142.97;;;22.26;54.50
10700;BME280;5401;41.986;21.452;2023-05-29T19:25:38;98119.97;;;22.09;54.12
10700;BME280;5401;41.986;21.452;2023-05-29T19:28:06;98134.47;;;22.04;55.07
10700;BME280;5401;41.986;21.452;2023-05-29T19:30:35;98153.59;;;21.99;55.09
10700;BME280;5401;41.986;21.452;2023-05-29T19:33:06;98139.56;;;21.87;55.00
10700;BME280;5401;41.986;21.452;2023-05-29T19:35:34;98152.63;;;21.90;55.18
10700;BME280;5401;41.986;21.452;2023-05-29T19:38:04;98160.28;;;21.88;56.33
10700;BME280;5401;41.986;21.452;2023-05-29T19:40:36;98135.13;;;21.68;55.96
10700;BME280;5401;41.986;21.452;2023-05-29T19:43:04;98164.66;;;21.84;56.21
10700;BME280;5401;41.986;21.452;2023-05-29T19:45:32;98160.44;;;21.74;56.99
10700;BME280;5401;41.986;21.452;2023-05-29T19:48:01;98174.16;;;21.64;57.11
10700;BME280;5401;41.986;21.452;2023-05-29T19:50:30;98146.06;;;21.35;57.79